This is the latest recevied weather packets stored in our database for station/object IV3CVE-H1. If no packets are shown the sender has not sent any weather packets the latest 10 day(s).
| Time | Temp. | Humidity | Pressure | Rain* | Wind** | Luminosity | Snow |
|---|---|---|---|---|---|---|---|
| 1777849516 | 12.22° C | 80% | 1015.2 hPa | 0 mm | - | - | - |
| 1777848917 | 12.22° C | 81% | 1015.2 hPa | 0 mm | - | - | - |
| 1777844115 | 12.78° C | 78% | 1015 hPa | 0 mm | - | - | - |
| 1777840516 | 13.89° C | 75% | 1014.9 hPa | 0 mm | - | - | - |
| 1777836317 | 15.56° C | 64% | 1014.7 hPa | 0 mm | - | - | - |
| 1777831516 | 20° C | 50% | 1014.2 hPa | 0 mm | - | - | - |
| 1777827917 | 22.78° C | 41% | 1014.3 hPa | 0 mm | - | - | - |
| 1777824916 | 24.44° C | 39% | 1014.4 hPa | 0 mm | - | - | - |
| 1777821917 | 25° C | 37% | 1014.6 hPa | 0 mm | - | - | - |
| 1777820717 | 25.56° C | 37% | 1014.5 hPa | 0 mm | - | - | - |
| 1777817117 | 26.11° C | 35% | 1014.9 hPa | 0 mm | - | - | - |
| 1777815916 | 26.67° C | 34% | 1015 hPa | 0 mm | - | - | - |
| 1777811717 | 26.11° C | 38% | 1015.6 hPa | 0 mm | - | - | - |
| 1777809916 | 26.11° C | 40% | 1015.7 hPa | 0 mm | - | - | - |
| 1777807515 | 25.56° C | 40% | 1016 hPa | 0 mm | - | - | - |
| 1777803916 | 23.89° C | 49% | 1016.6 hPa | 0 mm | - | - | - |
| 1777799716 | 22.22° C | 55% | 1017 hPa | 0 mm | - | - | - |
| 1777799136 | 21.67° C | 54% | 1017.1 hPa | 0 mm | - | - | - |
| 1777798516 | 21.67° C | 53% | 1017.1 hPa | 0 mm | - | - | - |
| 1777797315 | 21.11° C | 53% | 1017.2 hPa | 0 mm | - | - | - |
| 1777792516 | 17.78° C | 64% | 1017.3 hPa | 0 mm | - | - | - |
| 1777790116 | 16.67° C | 68% | 1017.2 hPa | 0 mm | - | - | - |
| 1777787715 | 15.56° C | 73% | 1017.1 hPa | 0 mm | - | - | - |
| 1777785918 | 12.78° C | 81% | 1017 hPa | 0 mm | - | - | - |
| 1777775118 | 10° C | 86% | 1017.3 hPa | 0 mm | - | - | - |
* Rain latest hour (hover to see other rain measurements)
** Current wind speed in m/s (hover to see current wind gust speed)